Jonathan C Moran — WDI5374 — position and weather

sailwx.info

Track history (hours):
 
Tides and Currents Weather Stations Pressure Air Temp Water Temp Dewpoint Dewpoint Depression Visibility Wind Speed Wind Dir Waves Ship Positions

Jonathan C Moran

Owner: Moran Towing Corporation, New Canaan, CT. More information available from US FCC via Universal Licensing System and Coast Guard Vessel Documentation Center.

Last reported at 2017-Nov-20 00:29 UTC. Time now 2017-Nov-22 03:47 UTC.
Position N 40°38' W 074°08'.

Length 28 m; draft 5.5 m.

Type: Tug. MMSI: 367707930.

Date/timePositionNaut miles runAvg speedWind from/ knotsBaromVisibWave heightAir tempDewpointWater temp
2017-Nov-20 00:29N 40°38' W 074°08'0 0.0
2017-Nov-19 23:58N 40°38' W 074°08'0 0.0
2017-Nov-19 23:30N 40°38' W 074°08'0 0.0
2017-Nov-19 22:58N 40°38' W 074°08'0 0.0
2017-Nov-19 22:30N 40°38' W 074°08'0 0.0
2017-Nov-19 22:00N 40°38' W 074°08'0 0.0
2017-Nov-19 21:00N 40°38' W 074°08'0 0.0
2017-Nov-19 20:28N 40°38' W 074°08'0 0.0
2017-Nov-19 20:00N 40°38' W 074°08'0 0.0
2017-Nov-19 19:30N 40°38' W 074°08'0 0.0
2017-Nov-19 19:00N 40°38' W 074°08'0 0.0
2017-Nov-19 18:30N 40°38' W 074°08'0 0.0
2017-Nov-19 18:00N 40°38' W 074°08'0 0.0
2017-Nov-19 17:30N 40°38' W 074°08'0 0.0
2017-Nov-19 16:59N 40°38' W 074°08'0 0.0
2017-Nov-19 15:42N 40°38' W 074°08'0 0.0
2017-Nov-19 15:12N 40°38' W 074°08'0 0.0
2017-Nov-19 15:00N 40°38' W 074°08'0 0.0
2017-Nov-19 14:26N 40°38' W 074°08'0 0.0
2017-Nov-19 13:59N 40°38' W 074°08'0 0.0
2017-Nov-19 13:30N 40°38' W 074°08'0 0.0
2017-Nov-19 13:00N 40°38' W 074°08'0 0.0
2017-Nov-19 12:30N 40°38' W 074°08'0 0.0
2017-Nov-19 11:57N 40°38' W 074°08'3 5.7
2017-Nov-19 11:30N 40°41' W 074°09'0 0.7
2017-Nov-19 11:00N 40°41' W 074°09'1 2.8
2017-Nov-19 10:30N 40°40' W 074°09'2 3.4
2017-Nov-19 10:01N 40°39' W 074°07'3 5.9
2017-Nov-19 09:30N 40°38' W 074°03'4 7.4
2017-Nov-19 09:00N 40°38' W 074°08'0 0.0
2017-Nov-19 08:28N 40°38' W 074°08'0 0.0
2017-Nov-19 07:28N 40°38' W 074°08'0 0.0
2017-Nov-19 06:57N 40°38' W 074°08'1 2.1
2017-Nov-19 06:30N 40°39' W 074°09'7 3.7
2017-Nov-19 04:30N 40°33' W 074°15'510.0
2017-Nov-19 04:00N 40°37' W 074°12'4 2.8
2017-Nov-19 02:44N 40°38' W 074°08'0 0.0
2017-Nov-19 02:30N 40°38' W 074°08'0 0.0
2017-Nov-19 00:35N 40°38' W 074°08'0 0.1
2017-Nov-19 00:29N 40°38' W 074°08'0 0.0
2017-Nov-18 23:46N 40°38' W 074°08'0 0.0
2017-Nov-18 23:29N 40°38' W 074°08'4 8.6
2017-Nov-18 23:00N 40°40' W 074°03'611.3
2017-Nov-18 22:30N 40°46' W 074°01'1 1.5
2017-Nov-18 22:00N 40°46' W 074°00'1 1.3
2017-Nov-18 21:30N 40°46' W 074°01'4 8.7
2017-Nov-18 21:00N 40°41' W 074°02'4 7.9
2017-Nov-18 20:30N 40°39' W 074°06'1 1.2
2017-Nov-18 19:23N 40°38' W 074°08'0 0.0
2017-Nov-18 18:57N 40°38' W 074°08'0 0.0
2017-Nov-18 18:06N 40°38' W 074°08'0 0.0
2017-Nov-18 17:45N 40°38' W 074°08'0 0.0
2017-Nov-18 17:30N 40°38' W 074°08'0 0.0
2017-Nov-18 17:00N 40°38' W 074°08'0 0.0
2017-Nov-18 16:30N 40°38' W 074°08'0 0.0
2017-Nov-18 16:00N 40°38' W 074°08'0 0.0
2017-Nov-18 15:30N 40°38' W 074°08'0 0.0
2017-Nov-18 15:00N 40°38' W 074°08'0 0.0
2017-Nov-18 14:30N 40°38' W 074°08'0 0.0
2017-Nov-18 14:00N 40°38' W 074°08'0 0.0
2017-Nov-18 13:30N 40°38' W 074°08'0 0.0
2017-Nov-18 12:58N 40°38' W 074°08'3 6.4
2017-Nov-18 12:30N 40°39' W 074°04'5 9.7
2017-Nov-18 12:00N 40°43' W 074°01'3 5.7
2017-Nov-18 11:30N 40°46' W 074°00'0 0.5
2017-Nov-18 11:00N 40°46' W 074°00'1 2.4
2017-Nov-18 10:30N 40°45' W 074°01'2 4.2
2017-Nov-18 10:00N 40°43' W 074°01'4 8.6
2017-Nov-18 09:30N 40°39' W 074°04'3 5.5
2017-Nov-18 09:00N 40°38' W 074°08'0 0.0
2017-Nov-18 08:30N 40°38' W 074°08'0 0.0
2017-Nov-18 08:00N 40°38' W 074°08'0 0.0
2017-Nov-18 07:30N 40°38' W 074°08'0 0.0
2017-Nov-18 07:00N 40°38' W 074°08'0 0.0
2017-Nov-18 06:30N 40°38' W 074°08'0 0.0
2017-Nov-18 06:00N 40°38' W 074°08'0 0.0
2017-Nov-18 05:30N 40°38' W 074°08'0 0.0
2017-Nov-18 05:00N 40°38' W 074°08'0 0.0
2017-Nov-18 04:30N 40°38' W 074°08'0 0.0
2017-Nov-18 04:00N 40°38' W 074°08'0 0.0
2017-Nov-18 03:30N 40°38' W 074°08'0 0.0
2017-Nov-18 03:00N 40°38' W 074°08'0 0.0
2017-Nov-18 02:31N 40°38' W 074°08'0 0.0
2017-Nov-18 02:00N 40°38' W 074°08'0 0.0
2017-Nov-18 01:30N 40°38' W 074°08'0 0.0
2017-Nov-18 01:00N 40°38' W 074°08'0 0.0
2017-Nov-18 00:30N 40°38' W 074°08'0 0.0
2017-Nov-18 00:00N 40°38' W 074°08'0 0.6
2017-Nov-17 23:29N 40°39' W 074°08'1 2.8
2017-Nov-17 22:59N 40°40' W 074°08'1 2.1
2017-Nov-17 22:30N 40°41' W 074°09'0 0.0
2017-Nov-17 22:00N 40°41' W 074°09'3 5.0
2017-Nov-17 21:30N 40°38' W 074°08'0 0.0
2017-Nov-17 20:57N 40°38' W 074°08'0 0.0
2017-Nov-17 20:30N 40°38' W 074°08'0 0.0
2017-Nov-17 19:45N 40°38' W 074°08'0 0.0
2017-Nov-17 19:25N 40°38' W 074°08'0 0.1
2017-Nov-17 18:58N 40°38' W 074°08'0 0.1
2017-Nov-17 18:08N 40°38' W 074°08'0 0.0
2017-Nov-17 17:41N 40°38' W 074°08'0 0.0
2017-Nov-17 17:17N 40°38' W 074°08'0 0.0
2017-Nov-17 16:35N 40°38' W 074°08'0 0.0
2017-Nov-17 16:23N 40°38' W 074°08'0 0.0
2017-Nov-17 15:59N 40°38' W 074°08'0 0.0
2017-Nov-17 14:35N 40°38' W 074°08'0 2.8
2017-Nov-17 14:30N 40°39' W 074°08'3 5.1
2017-Nov-17 14:00N 40°41' W 074°09'1 1.6
2017-Nov-17 13:30N 40°41' W 074°08'2 4.0
2017-Nov-17 13:00N 40°39' W 074°08'2 4.8
2017-Nov-17 12:30N 40°39' W 074°05'3 6.1
2017-Nov-17 12:00N 40°36' W 074°03'4 7.1
2017-Nov-17 11:30N 40°39' W 074°06'2 4.2
2017-Nov-17 10:59N 40°39' W 074°09'2 3.4
2017-Nov-17 10:30N 40°40' W 074°08'1 1.8
2017-Nov-17 10:00N 40°41' W 074°09'0 0.1
2017-Nov-17 09:30N 40°41' W 074°09'2 4.9
2017-Nov-17 09:00N 40°39' W 074°08'0 0.8
2017-Nov-17 08:30N 40°38' W 074°08'0 0.0
2017-Nov-17 08:00N 40°38' W 074°08'0 0.0
2017-Nov-17 07:30N 40°38' W 074°08'0 0.0
2017-Nov-17 07:00N 40°38' W 074°08'0 0.0
2017-Nov-17 06:30N 40°38' W 074°08'0 0.0
2017-Nov-17 05:59N 40°38' W 074°08'0 0.0
2017-Nov-17 05:27N 40°38' W 074°08'0 0.0
2017-Nov-17 05:00N 40°38' W 074°08'0 0.0
2017-Nov-17 04:30N 40°38' W 074°08'0 0.0
2017-Nov-17 04:00N 40°38' W 074°08'0 0.0
2017-Nov-17 03:30N 40°38' W 074°08'0 0.0
2017-Nov-17 02:58N 40°38' W 074°08'0 0.0
2017-Nov-17 02:19N 40°38' W 074°08'0 0.0
2017-Nov-17 01:59N 40°38' W 074°08'0 0.0
2017-Nov-17 01:30N 40°38' W 074°08'0 0.0
2017-Nov-17 00:54N 40°38' W 074°08'0 0.0
2017-Nov-17 00:30N 40°38' W 074°08'1 1.9
2017-Nov-17 00:00N 40°39' W 074°09'2 3.9
2017-Nov-16 23:30N 40°41' W 074°09'0 0.0
2017-Nov-16 23:00N 40°41' W 074°09'2 4.6
2017-Nov-16 22:30N 40°39' W 074°08'0 0.9
2017-Nov-16 22:00N 40°38' W 074°08'0 0.0
2017-Nov-16 21:30N 40°38' W 074°08'0 0.0
2017-Nov-16 21:00N 40°38' W 074°08'0 0.0
2017-Nov-16 20:12N 40°38' W 074°08'0 0.0
2017-Nov-16 19:55N 40°38' W 074°08'0 0.0
2017-Nov-16 19:30N 40°38' W 074°08'0 0.0
2017-Nov-16 19:00N 40°38' W 074°08'0 0.0
2017-Nov-16 18:30N 40°38' W 074°08'0 0.0
2017-Nov-16 18:00N 40°38' W 074°08'0 0.0
2017-Nov-16 17:30N 40°38' W 074°08'0 0.0
2017-Nov-16 16:58N 40°38' W 074°08'0 0.0
2017-Nov-16 16:30N 40°38' W 074°08'0 0.0
2017-Nov-16 15:59N 40°38' W 074°08'0 0.0
2017-Nov-16 15:30N 40°38' W 074°08'0 0.0
2017-Nov-16 14:45N 40°38' W 074°08'2 6.8
2017-Nov-16 14:30N 40°39' W 074°06'5 9.4
2017-Nov-16 14:00N 40°35' W 074°02'0 0.4
2017-Nov-16 13:30N 40°35' W 074°02'1 1.4
2017-Nov-16 13:00N 40°35' W 074°02'0 0.1
2017-Nov-16 12:30N 40°35' W 074°02'2 3.5
2017-Nov-16 12:00N 40°36' W 074°03'4 8.5
2017-Nov-16 11:30N 40°39' W 074°08'2 3.1
2017-Nov-16 11:00N 40°40' W 074°09'0 0.3
2017-Nov-16 10:30N 40°40' W 074°09'0 0.2
2017-Nov-16 10:00N 40°40' W 074°09'1 2.2
2017-Nov-16 09:30N 40°39' W 074°09'3 6.7
2017-Nov-16 09:00N 40°39' W 074°04'2 3.6
2017-Nov-16 08:30N 40°37' W 074°03'4 7.5
2017-Nov-16 08:00N 40°38' W 074°08'0 0.0
2017-Nov-16 07:30N 40°38' W 074°08'0 0.0
2017-Nov-16 07:00N 40°38' W 074°08'0 0.0
2017-Nov-16 06:30N 40°38' W 074°08'0 0.0
2017-Nov-16 06:00N 40°38' W 074°08'0 0.0
2017-Nov-16 05:30N 40°38' W 074°08'0 0.0
2017-Nov-16 05:00N 40°38' W 074°08'0 0.0
2017-Nov-16 04:30N 40°38' W 074°08'0 0.0
2017-Nov-16 04:00N 40°38' W 074°08'0 0.1
2017-Nov-16 03:30N 40°38' W 074°08'4 7.2
2017-Nov-16 03:00N 40°37' W 074°12'1 1.3
2017-Nov-16 02:22N 40°37' W 074°12'0 0.0
2017-Nov-16 01:59N 40°37' W 074°12'2 3.6
2017-Nov-16 01:30N 40°35' W 074°13'0 0.1
2017-Nov-15 23:34N 40°35' W 074°13'110.1
2017-Nov-15 23:28N 40°36' W 074°12'3 7.5
2017-Nov-15 23:00N 40°39' W 074°09'1 2.1
2017-Nov-15 22:26N 40°38' W 074°08'0 0.0
2017-Nov-15 21:57N 40°38' W 074°08'0 0.0
2017-Nov-15 21:27N 40°38' W 074°08'0 0.0
2017-Nov-15 20:59N 40°38' W 074°08'0 0.2
2017-Nov-15 20:30N 40°39' W 074°08'0 0.1
2017-Nov-15 20:00N 40°38' W 074°08'1 1.3
2017-Nov-15 19:30N 40°39' W 074°09'2 4.7
2017-Nov-15 19:00N 40°41' W 074°09'1 1.7
2017-Nov-15 18:30N 40°40' W 074°08'2 3.4
2017-Nov-15 18:00N 40°39' W 074°08'3 5.1
2017-Nov-15 17:30N 40°39' W 074°05'2 3.8
2017-Nov-15 17:00N 40°38' W 074°03'1 2.3
2017-Nov-15 16:30N 40°37' W 074°03'0 0.6
2017-Nov-15 16:01N 40°36' W 074°03'0 0.5
2017-Nov-15 15:30N 40°36' W 074°03'4 8.4
2017-Nov-15 15:00N 40°39' W 074°07'3 5.4
2017-Nov-15 14:30N 40°41' W 074°09'0 0.7
2017-Nov-15 14:00N 40°41' W 074°09'2 4.2
2017-Nov-15 13:30N 40°39' W 074°09'3 5.4
2017-Nov-15 13:01N 40°39' W 074°06'3 5.6
2017-Nov-15 12:30N 40°37' W 074°03'4 8.1
2017-Nov-15 12:00N 40°39' W 074°08'2 3.2
2017-Nov-15 11:30N 40°40' W 074°08'0 0.3
2017-Nov-15 11:00N 40°40' W 074°09'2 3.5
2017-Nov-15 10:30N 40°38' W 074°08'0 0.0
2017-Nov-15 10:00N 40°38' W 074°08'0 0.0
2017-Nov-15 09:29N 40°38' W 074°08'0 0.0
2017-Nov-15 09:00N 40°38' W 074°08'0 0.0
2017-Nov-15 08:29N 40°38' W 074°08'0 0.0
2017-Nov-15 07:59N 40°38' W 074°08'0 0.0
2017-Nov-15 07:30N 40°38' W 074°08'0 0.0
2017-Nov-15 07:00N 40°38' W 074°08'0 0.0
2017-Nov-15 06:30N 40°38' W 074°08'0 0.0
2017-Nov-15 06:00N 40°38' W 074°08'0 0.0
2017-Nov-15 05:30N 40°38' W 074°08'0 0.0
2017-Nov-15 04:59N 40°38' W 074°08'0 0.0
2017-Nov-15 04:30N 40°38' W 074°08'4 8.7
2017-Nov-15 04:00N 40°40' W 074°03'2 3.5
2017-Nov-15 03:30N 40°41' W 074°01'2 4.0
2017-Nov-15 03:00N 40°40' W 074°03'2 4.5
2017-Nov-15 02:30N 40°38' W 074°03'1 1.4
2017-Nov-15 02:00N 40°38' W 074°03'3 6.5
2017-Nov-15 01:30N 40°38' W 074°08'0 0.0
2017-Nov-15 01:00N 40°38' W 074°08'0 0.0
2017-Nov-15 00:30N 40°38' W 074°08'0 0.3
2017-Nov-15 00:00N 40°39' W 074°08'1 2.6
2017-Nov-14 23:30N 40°39' W 074°06'0 0.3
2017-Nov-14 23:00N 40°39' W 074°06'2 3.9
2017-Nov-14 22:30N 40°38' W 074°09'2 3.3
2017-Nov-14 22:00N 40°39' W 074°11'2 4.4
2017-Nov-14 21:30N 40°37' W 074°12'0 0.6
2017-Nov-14 21:00N 40°37' W 074°12'3 5.9
2017-Nov-14 20:30N 40°39' W 074°10'2 3.2
2017-Nov-14 20:00N 40°38' W 074°08'0 0.0
2017-Nov-14 19:29N 40°38' W 074°08'0 0.0
2017-Nov-14 18:58N 40°38' W 074°08'0 0.0
2017-Nov-14 18:30N 40°38' W 074°08'0 0.0
2017-Nov-14 18:00N 40°38' W 074°08'0 0.0
2017-Nov-14 17:30N 40°38' W 074°08'0 0.0
2017-Nov-14 17:00N 40°38' W 074°08'0 0.0
2017-Nov-14 16:30N 40°38' W 074°08'0 0.0
2017-Nov-14 16:00N 40°38' W 074°08'0 0.0
2017-Nov-14 15:30N 40°38' W 074°08'0 0.0
2017-Nov-14 15:00N 40°38' W 074°08'2 3.4
2017-Nov-14 14:30N 40°39' W 074°06'3 5.5
2017-Nov-14 14:00N 40°39' W 074°09'2 4.2
2017-Nov-14 13:30N 40°41' W 074°09'0 0.2
2017-Nov-14 13:00N 40°41' W 074°09'2 4.1
2017-Nov-14 12:30N 40°39' W 074°09'1 1.9
2017-Nov-14 12:00N 40°38' W 074°08'0 0.7
2017-Nov-14 11:29N 40°39' W 074°07'3 6.9
2017-Nov-14 11:00N 40°40' W 074°03'1 2.6
2017-Nov-14 10:30N 40°40' W 074°05'0 0.1
2017-Nov-14 10:00N 40°40' W 074°05'3 5.7
2017-Nov-14 09:29N 40°38' W 074°08'0 0.0
2017-Nov-14 09:00N 40°38' W 074°08'0 0.0
2017-Nov-14 08:30N 40°38' W 074°08'0 0.0
2017-Nov-14 08:00N 40°38' W 074°08'0 0.0
2017-Nov-14 07:30N 40°38' W 074°08'4 7.9
2017-Nov-14 07:00N 40°37' W 074°12'2 1.3
2017-Nov-14 05:45N 40°35' W 074°13'3 5.2
2017-Nov-14 05:13N 40°33' W 074°15'0 0.1
2017-Nov-14 03:05N 40°33' W 074°15'4 9.9
2017-Nov-14 02:42N 40°36' W 074°12'210.8
2017-Nov-14 02:30N 40°38' W 074°12'5 9.1
2017-Nov-14 01:59N 40°39' W 074°06'2 4.6
2017-Nov-14 01:30N 40°39' W 074°09'1 1.7
2017-Nov-14 01:00N 40°40' W 074°09'0 0.7
2017-Nov-14 00:30N 40°40' W 074°09'0 0.0
2017-Nov-14 00:00N 40°40' W 074°09'0 0.0
2017-Nov-13 23:30N 40°40' W 074°09'0 0.0
2017-Nov-13 23:00N 40°40' W 074°09'0 0.0
2017-Nov-13 22:30N 40°40' W 074°09'0 0.0
2017-Nov-13 22:00N 40°40' W 074°09'2 0.1
2017-Nov-13 01:59N 40°39' W 074°07'0 0.4
2017-Nov-13 01:30N 40°39' W 074°07'2 3.7
2017-Nov-13 01:00N 40°40' W 074°08'2 3.4
2017-Nov-13 00:30N 40°42' W 074°09'0 0.3
2017-Nov-13 00:00N 40°42' W 074°09'3 6.4
2017-Nov-12 23:29N 40°39' W 074°08'0 0.3
2017-Nov-12 23:00N 40°38' W 074°08'0 0.0
2017-Nov-12 22:30N 40°38' W 074°08'0 0.5
2017-Nov-12 22:00N 40°39' W 074°08'2 3.7
2017-Nov-12 21:30N 40°40' W 074°08'1 1.7
2017-Nov-12 21:00N 40°41' W 074°09'3 5.1
2017-Nov-12 20:30N 40°39' W 074°08'0 0.8
2017-Nov-12 20:00N 40°38' W 074°08'0 0.0
2017-Nov-12 19:30N 40°38' W 074°08'0 0.1
2017-Nov-12 19:00N 40°39' W 074°08'0 0.0
2017-Nov-12 18:30N 40°39' W 074°08'0 0.0
2017-Nov-12 18:00N 40°39' W 074°08'0 0.0
2017-Nov-12 17:30N 40°39' W 074°08'1 2.9
2017-Nov-12 17:00N 40°40' W 074°09'0 0.2
2017-Nov-12 16:30N 40°40' W 074°09'2 3.3
2017-Nov-12 16:00N 40°39' W 074°07'3 6.4
2017-Nov-12 15:30N 40°38' W 074°03'4 7.3
2017-Nov-12 15:00N 40°39' W 074°08'0 0.2
2017-Nov-12 14:30N 40°38' W 074°08'0 0.0
2017-Nov-12 14:00N 40°38' W 074°08'0 0.0
2017-Nov-12 13:30N 40°38' W 074°08'0 0.0
2017-Nov-12 13:00N 40°38' W 074°08'0 0.1
2017-Nov-12 12:30N 40°38' W 074°08'3 5.3
2017-Nov-12 12:00N 40°41' W 074°09'0 0.4
2017-Nov-12 11:30N 40°41' W 074°09'1 1.3
2017-Nov-12 11:00N 40°40' W 074°08'2 3.9
2017-Nov-12 10:30N 40°39' W 074°09'3 6.1
2017-Nov-12 10:00N 40°39' W 074°05'2 4.6
2017-Nov-12 09:30N 40°37' W 074°03'3 6.6
2017-Nov-12 09:00N 40°39' W 074°07'1 1.4
2017-Nov-12 08:30N 40°38' W 074°08'0 0.0
2017-Nov-12 08:00N 40°38' W 074°08'0 0.0
2017-Nov-12 07:30N 40°38' W 074°08'0 0.0
2017-Nov-12 02:48N 40°38' W 074°08'0 0.0
2017-Nov-12 02:30N 40°39' W 074°08'0 0.0
2017-Nov-12 01:46N 40°39' W 074°08'0 0.0
2017-Nov-12 01:30N 40°39' W 074°08'0 0.0
2017-Nov-12 00:59N 40°39' W 074°08'0 0.0
2017-Nov-12 00:30N 40°39' W 074°08'0 0.0
2017-Nov-11 23:59N 40°39' W 074°08'0 0.0
2017-Nov-11 22:58N 40°39' W 074°08'0 0.2
2017-Nov-11 22:31N 40°38' W 074°08'0 0.0
2017-Nov-11 22:00N 40°38' W 074°08'0 0.0
2017-Nov-11 21:30N 40°38' W 074°08'0 0.1
2017-Nov-11 21:00N 40°38' W 074°08'2 5.0
2017-Nov-11 20:30N 40°41' W 074°08'0 0.4
2017-Nov-11 20:00N 40°41' W 074°08'3 5.4
2017-Nov-11 19:31N 40°39' W 074°08'0 0.0
2017-Nov-11 19:00N 40°39' W 074°08'0 0.0
2017-Nov-11 18:30N 40°39' W 074°08'0 0.0
2017-Nov-11 17:59N 40°39' W 074°08'0 0.0
2017-Nov-11 17:20N 40°39' W 074°08'0 0.0
2017-Nov-11 16:58N 40°39' W 074°08'0 0.0
2017-Nov-11 16:30N 40°39' W 074°08'0 0.0
2017-Nov-11 16:00N 40°39' W 074°08'0 0.0
2017-Nov-11 15:31N 40°39' W 074°08'0 0.0
2017-Nov-11 15:00N 40°39' W 074°08'0 0.0
2017-Nov-11 14:30N 40°39' W 074°08'0 0.0
2017-Nov-11 14:00N 40°39' W 074°08'0 0.0
2017-Nov-11 13:30N 40°39' W 074°08'0 0.0
2017-Nov-11 13:00N 40°39' W 074°08'2 3.2
2017-Nov-11 12:29N 40°39' W 074°06'511.0
2017-Nov-11 12:00N 40°43' W 074°01'3 6.5
2017-Nov-11 11:31N 40°46' W 074°00'1 1.1
2017-Nov-11 11:00N 40°46' W 074°00'1 2.6
2017-Nov-11 10:31N 40°44' W 074°01'1 2.2
2017-Nov-11 10:00N 40°43' W 074°01'4 8.4
2017-Nov-11 09:31N 40°39' W 074°03'4 6.9
2017-Nov-11 09:00N 40°38' W 074°08'0 0.0
2017-Nov-11 08:30N 40°38' W 074°08'0 0.0
2017-Nov-11 08:00N 40°38' W 074°08'0 0.0
2017-Nov-11 07:30N 40°38' W 074°08'0 0.0
2017-Nov-11 07:00N 40°38' W 074°08'0 0.0
2017-Nov-11 06:30N 40°38' W 074°08'0 0.0
2017-Nov-11 06:00N 40°38' W 074°08'0 0.0
2017-Nov-11 05:30N 40°38' W 074°08'0 0.6
2017-Nov-11 05:00N 40°39' W 074°07'1 2.8
2017-Nov-11 04:30N 40°40' W 074°09'0 0.4
2017-Nov-11 04:00N 40°40' W 074°09'0 0.3
2017-Nov-11 03:30N 40°40' W 074°09'0 0.1
2017-Nov-11 03:00N 40°40' W 074°09'1 2.7
2017-Nov-11 02:29N 40°38' W 074°08'0 0.0
2017-Nov-11 00:52N 40°38' W 074°08'0 0.0
2017-Nov-11 00:27N 40°38' W 074°08'0 0.0
2017-Nov-10 23:52N 40°38' W 074°08'0 0.0
2017-Nov-10 23:30N 40°38' W 074°08'0 0.0
2017-Nov-10 22:40N 40°38' W 074°08'0 0.0
2017-Nov-10 22:27N 40°38' W 074°08'4 8.2
2017-Nov-10 22:00N 40°37' W 074°12'5 1.7
2017-Nov-10 19:11N 40°33' W 074°15'3 8.3
2017-Nov-10 18:49N 40°35' W 074°12'3 8.9
2017-Nov-10 18:30N 40°38' W 074°12'3 6.9
2017-Nov-10 18:00N 40°38' W 074°08'0 0.0
2017-Nov-10 17:30N 40°38' W 074°08'0 0.0
2017-Nov-10 17:00N 40°38' W 074°08'0 0.0
2017-Nov-10 16:30N 40°38' W 074°08'0 0.0
2017-Nov-10 16:00N 40°39' W 074°08'0 0.0
2017-Nov-10 15:30N 40°39' W 074°08'0 0.0
2017-Nov-10 15:00N 40°39' W 074°08'0 0.0
2017-Nov-10 14:31N 40°39' W 074°08'1 1.7
2017-Nov-10 14:00N 40°39' W 074°07'2 3.8
2017-Nov-10 13:30N 40°39' W 074°09'2 3.5
2017-Nov-10 13:00N 40°41' W 074°09'0 0.8
2017-Nov-10 12:30N 40°41' W 074°09'1 2.3
2017-Nov-10 12:00N 40°40' W 074°09'0 0.1
2017-Nov-10 11:30N 40°40' W 074°09'1 2.4
2017-Nov-10 11:00N 40°39' W 074°09'3 5.2
2017-Nov-10 10:30N 40°39' W 074°05'2 3.7
2017-Nov-10 10:00N 40°38' W 074°03'3 6.1
2017-Nov-10 09:30N 40°39' W 074°07'0 0.7
2017-Nov-10 09:00N 40°38' W 074°08'0 0.0
2017-Nov-10 08:30N 40°38' W 074°08'0 0.0
2017-Nov-10 08:00N 40°38' W 074°08'0 0.0
2017-Nov-10 07:30N 40°38' W 074°08'0 0.0
2017-Nov-10 07:01N 40°38' W 074°08'2 3.6
2017-Nov-10 06:31N 40°39' W 074°05'3 5.5
2017-Nov-10 06:00N 40°39' W 074°09'2 4.1
2017-Nov-10 05:30N 40°41' W 074°09'0 0.4
2017-Nov-10 05:00N 40°41' W 074°09'2 4.6
2017-Nov-10 04:30N 40°38' W 074°08'0 0.0
2017-Nov-10 04:00N 40°38' W 074°08'0 0.0
2017-Nov-10 03:31N 40°38' W 074°08'0 0.0
2017-Nov-10 03:00N 40°38' W 074°08'1 2.9
2017-Nov-10 02:30N 40°40' W 074°08'2 3.8
2017-Nov-10 02:00N 40°42' W 074°08'1 2.2
2017-Nov-10 01:30N 40°41' W 074°08'2 4.3
2017-Nov-10 01:00N 40°39' W 074°07'3 6.3
2017-Nov-10 00:30N 40°38' W 074°03'  
Track history (hours):
 
Tides and Currents Weather Stations Pressure Air Temp Water Temp Dewpoint Dewpoint Depression Visibility Wind Speed Wind Dir Waves Ship Positions

Jonathan C Moran

Owner: Moran Towing Corporation, New Canaan, CT. More information available from US FCC via Universal Licensing System and Coast Guard Vessel Documentation Center.

Last reported at 2017-Nov-20 00:29 UTC. Time now 2017-Nov-22 03:47 UTC.
Position N 40°38' W 074°08'.

Length 28 m; draft 5.5 m.

Type: Tug. MMSI: 367707930.

Date/timePositionNaut miles runAvg speedWind from/ knotsBaromVisibWave heightAir tempDewpointWater temp
2017-Nov-20 00:29N 40°38' W 074°08'0 0.0
2017-Nov-19 23:58N 40°38' W 074°08'0 0.0
2017-Nov-19 23:30N 40°38' W 074°08'0 0.0
2017-Nov-19 22:58N 40°38' W 074°08'0 0.0
2017-Nov-19 22:30N 40°38' W 074°08'0 0.0
2017-Nov-19 22:00N 40°38' W 074°08'0 0.0
2017-Nov-19 21:00N 40°38' W 074°08'0 0.0
2017-Nov-19 20:28N 40°38' W 074°08'0 0.0
2017-Nov-19 20:00N 40°38' W 074°08'0 0.0
2017-Nov-19 19:30N 40°38' W 074°08'0 0.0
2017-Nov-19 19:00N 40°38' W 074°08'0 0.0
2017-Nov-19 18:30N 40°38' W 074°08'0 0.0
2017-Nov-19 18:00N 40°38' W 074°08'0 0.0
2017-Nov-19 17:30N 40°38' W 074°08'0 0.0
2017-Nov-19 16:59N 40°38' W 074°08'0 0.0
2017-Nov-19 15:42N 40°38' W 074°08'0 0.0
2017-Nov-19 15:12N 40°38' W 074°08'0 0.0
2017-Nov-19 15:00N 40°38' W 074°08'0 0.0
2017-Nov-19 14:26N 40°38' W 074°08'0 0.0
2017-Nov-19 13:59N 40°38' W 074°08'0 0.0
2017-Nov-19 13:30N 40°38' W 074°08'0 0.0
2017-Nov-19 13:00N 40°38' W 074°08'0 0.0
2017-Nov-19 12:30N 40°38' W 074°08'0 0.0
2017-Nov-19 11:57N 40°38' W 074°08'3 5.7
2017-Nov-19 11:30N 40°41' W 074°09'0 0.7
2017-Nov-19 11:00N 40°41' W 074°09'1 2.8
2017-Nov-19 10:30N 40°40' W 074°09'2 3.4
2017-Nov-19 10:01N 40°39' W 074°07'3 5.9
2017-Nov-19 09:30N 40°38' W 074°03'4 7.4
2017-Nov-19 09:00N 40°38' W 074°08'0 0.0
2017-Nov-19 08:28N 40°38' W 074°08'0 0.0
2017-Nov-19 07:28N 40°38' W 074°08'0 0.0
2017-Nov-19 06:57N 40°38' W 074°08'1 2.1
2017-Nov-19 06:30N 40°39' W 074°09'7 3.7
2017-Nov-19 04:30N 40°33' W 074°15'510.0
2017-Nov-19 04:00N 40°37' W 074°12'4 2.8
2017-Nov-19 02:44N 40°38' W 074°08'0 0.0
2017-Nov-19 02:30N 40°38' W 074°08'0 0.0
2017-Nov-19 00:35N 40°38' W 074°08'0 0.1
2017-Nov-19 00:29N 40°38' W 074°08'0 0.0
2017-Nov-18 23:46N 40°38' W 074°08'0 0.0
2017-Nov-18 23:29N 40°38' W 074°08'4 8.6
2017-Nov-18 23:00N 40°40' W 074°03'611.3
2017-Nov-18 22:30N 40°46' W 074°01'1 1.5
2017-Nov-18 22:00N 40°46' W 074°00'1 1.3
2017-Nov-18 21:30N 40°46' W 074°01'4 8.7
2017-Nov-18 21:00N 40°41' W 074°02'4 7.9
2017-Nov-18 20:30N 40°39' W 074°06'1 1.2
2017-Nov-18 19:23N 40°38' W 074°08'0 0.0
2017-Nov-18 18:57N 40°38' W 074°08'0 0.0
2017-Nov-18 18:06N 40°38' W 074°08'0 0.0
2017-Nov-18 17:45N 40°38' W 074°08'0 0.0
2017-Nov-18 17:30N 40°38' W 074°08'0 0.0
2017-Nov-18 17:00N 40°38' W 074°08'0 0.0
2017-Nov-18 16:30N 40°38' W 074°08'0 0.0
2017-Nov-18 16:00N 40°38' W 074°08'0 0.0
2017-Nov-18 15:30N 40°38' W 074°08'0 0.0
2017-Nov-18 15:00N 40°38' W 074°08'0 0.0
2017-Nov-18 14:30N 40°38' W 074°08'0 0.0
2017-Nov-18 14:00N 40°38' W 074°08'0 0.0
2017-Nov-18 13:30N 40°38' W 074°08'0 0.0
2017-Nov-18 12:58N 40°38' W 074°08'3 6.4
2017-Nov-18 12:30N 40°39' W 074°04'5 9.7
2017-Nov-18 12:00N 40°43' W 074°01'3 5.7
2017-Nov-18 11:30N 40°46' W 074°00'0 0.5
2017-Nov-18 11:00N 40°46' W 074°00'1 2.4
2017-Nov-18 10:30N 40°45' W 074°01'2 4.2
2017-Nov-18 10:00N 40°43' W 074°01'4 8.6
2017-Nov-18 09:30N 40°39' W 074°04'3 5.5
2017-Nov-18 09:00N 40°38' W 074°08'0 0.0
2017-Nov-18 08:30N 40°38' W 074°08'0 0.0
2017-Nov-18 08:00N 40°38' W 074°08'0 0.0
2017-Nov-18 07:30N 40°38' W 074°08'0 0.0
2017-Nov-18 07:00N 40°38' W 074°08'0 0.0
2017-Nov-18 06:30N 40°38' W 074°08'0 0.0
2017-Nov-18 06:00N 40°38' W 074°08'0 0.0
2017-Nov-18 05:30N 40°38' W 074°08'0 0.0
2017-Nov-18 05:00N 40°38' W 074°08'0 0.0
2017-Nov-18 04:30N 40°38' W 074°08'0 0.0
2017-Nov-18 04:00N 40°38' W 074°08'0 0.0
2017-Nov-18 03:30N 40°38' W 074°08'0 0.0
2017-Nov-18 03:00N 40°38' W 074°08'0 0.0
2017-Nov-18 02:31N 40°38' W 074°08'0 0.0
2017-Nov-18 02:00N 40°38' W 074°08'0 0.0
2017-Nov-18 01:30N 40°38' W 074°08'0 0.0
2017-Nov-18 01:00N 40°38' W 074°08'0 0.0
2017-Nov-18 00:30N 40°38' W 074°08'0 0.0
2017-Nov-18 00:00N 40°38' W 074°08'0 0.6
2017-Nov-17 23:29N 40°39' W 074°08'1 2.8
2017-Nov-17 22:59N 40°40' W 074°08'1 2.1
2017-Nov-17 22:30N 40°41' W 074°09'0 0.0
2017-Nov-17 22:00N 40°41' W 074°09'3 5.0
2017-Nov-17 21:30N 40°38' W 074°08'0 0.0
2017-Nov-17 20:57N 40°38' W 074°08'0 0.0
2017-Nov-17 20:30N 40°38' W 074°08'0 0.0
2017-Nov-17 19:45N 40°38' W 074°08'0 0.0
2017-Nov-17 19:25N 40°38' W 074°08'0 0.1
2017-Nov-17 18:58N 40°38' W 074°08'0 0.1
2017-Nov-17 18:08N 40°38' W 074°08'0 0.0
2017-Nov-17 17:41N 40°38' W 074°08'0 0.0
2017-Nov-17 17:17N 40°38' W 074°08'0 0.0
2017-Nov-17 16:35N 40°38' W 074°08'0 0.0
2017-Nov-17 16:23N 40°38' W 074°08'0 0.0
2017-Nov-17 15:59N 40°38' W 074°08'0 0.0
2017-Nov-17 14:35N 40°38' W 074°08'0 2.8
2017-Nov-17 14:30N 40°39' W 074°08'3 5.1
2017-Nov-17 14:00N 40°41' W 074°09'1 1.6
2017-Nov-17 13:30N 40°41' W 074°08'2 4.0
2017-Nov-17 13:00N 40°39' W 074°08'2 4.8
2017-Nov-17 12:30N 40°39' W 074°05'3 6.1
2017-Nov-17 12:00N 40°36' W 074°03'4 7.1
2017-Nov-17 11:30N 40°39' W 074°06'2 4.2
2017-Nov-17 10:59N 40°39' W 074°09'2 3.4
2017-Nov-17 10:30N 40°40' W 074°08'1 1.8
2017-Nov-17 10:00N 40°41' W 074°09'0 0.1
2017-Nov-17 09:30N 40°41' W 074°09'2 4.9
2017-Nov-17 09:00N 40°39' W 074°08'0 0.8
2017-Nov-17 08:30N 40°38' W 074°08'0 0.0
2017-Nov-17 08:00N 40°38' W 074°08'0 0.0
2017-Nov-17 07:30N 40°38' W 074°08'0 0.0
2017-Nov-17 07:00N 40°38' W 074°08'0 0.0
2017-Nov-17 06:30N 40°38' W 074°08'0 0.0
2017-Nov-17 05:59N 40°38' W 074°08'0 0.0
2017-Nov-17 05:27N 40°38' W 074°08'0 0.0
2017-Nov-17 05:00N 40°38' W 074°08'0 0.0
2017-Nov-17 04:30N 40°38' W 074°08'0 0.0
2017-Nov-17 04:00N 40°38' W 074°08'0 0.0
2017-Nov-17 03:30N 40°38' W 074°08'0 0.0
2017-Nov-17 02:58N 40°38' W 074°08'0 0.0
2017-Nov-17 02:19N 40°38' W 074°08'0 0.0
2017-Nov-17 01:59N 40°38' W 074°08'0 0.0
2017-Nov-17 01:30N 40°38' W 074°08'0 0.0
2017-Nov-17 00:54N 40°38' W 074°08'0 0.0
2017-Nov-17 00:30N 40°38' W 074°08'1 1.9
2017-Nov-17 00:00N 40°39' W 074°09'2 3.9
2017-Nov-16 23:30N 40°41' W 074°09'0 0.0
2017-Nov-16 23:00N 40°41' W 074°09'2 4.6
2017-Nov-16 22:30N 40°39' W 074°08'0 0.9
2017-Nov-16 22:00N 40°38' W 074°08'0 0.0
2017-Nov-16 21:30N 40°38' W 074°08'0 0.0
2017-Nov-16 21:00N 40°38' W 074°08'0 0.0
2017-Nov-16 20:12N 40°38' W 074°08'0 0.0
2017-Nov-16 19:55N 40°38' W 074°08'0 0.0
2017-Nov-16 19:30N 40°38' W 074°08'0 0.0
2017-Nov-16 19:00N 40°38' W 074°08'0 0.0
2017-Nov-16 18:30N 40°38' W 074°08'0 0.0
2017-Nov-16 18:00N 40°38' W 074°08'0 0.0
2017-Nov-16 17:30N 40°38' W 074°08'0 0.0
2017-Nov-16 16:58N 40°38' W 074°08'0 0.0
2017-Nov-16 16:30N 40°38' W 074°08'0 0.0
2017-Nov-16 15:59N 40°38' W 074°08'0 0.0
2017-Nov-16 15:30N 40°38' W 074°08'0 0.0
2017-Nov-16 14:45N 40°38' W 074°08'2 6.8
2017-Nov-16 14:30N 40°39' W 074°06'5 9.4
2017-Nov-16 14:00N 40°35' W 074°02'0 0.4
2017-Nov-16 13:30N 40°35' W 074°02'1 1.4
2017-Nov-16 13:00N 40°35' W 074°02'0 0.1
2017-Nov-16 12:30N 40°35' W 074°02'2 3.5
2017-Nov-16 12:00N 40°36' W 074°03'4 8.5
2017-Nov-16 11:30N 40°39' W 074°08'2 3.1
2017-Nov-16 11:00N 40°40' W 074°09'0 0.3
2017-Nov-16 10:30N 40°40' W 074°09'0 0.2
2017-Nov-16 10:00N 40°40' W 074°09'1 2.2
2017-Nov-16 09:30N 40°39' W 074°09'3 6.7
2017-Nov-16 09:00N 40°39' W 074°04'2 3.6
2017-Nov-16 08:30N 40°37' W 074°03'4 7.5
2017-Nov-16 08:00N 40°38' W 074°08'0 0.0
2017-Nov-16 07:30N 40°38' W 074°08'0 0.0
2017-Nov-16 07:00N 40°38' W 074°08'0 0.0
2017-Nov-16 06:30N 40°38' W 074°08'0 0.0
2017-Nov-16 06:00N 40°38' W 074°08'0 0.0
2017-Nov-16 05:30N 40°38' W 074°08'0 0.0
2017-Nov-16 05:00N 40°38' W 074°08'0 0.0
2017-Nov-16 04:30N 40°38' W 074°08'0 0.0
2017-Nov-16 04:00N 40°38' W 074°08'0 0.1
2017-Nov-16 03:30N 40°38' W 074°08'4 7.2
2017-Nov-16 03:00N 40°37' W 074°12'1 1.3
2017-Nov-16 02:22N 40°37' W 074°12'0 0.0
2017-Nov-16 01:59N 40°37' W 074°12'2 3.6
2017-Nov-16 01:30N 40°35' W 074°13'0 0.1
2017-Nov-15 23:34N 40°35' W 074°13'110.1
2017-Nov-15 23:28N 40°36' W 074°12'3 7.5
2017-Nov-15 23:00N 40°39' W 074°09'1 2.1
2017-Nov-15 22:26N 40°38' W 074°08'0 0.0
2017-Nov-15 21:57N 40°38' W 074°08'0 0.0
2017-Nov-15 21:27N 40°38' W 074°08'0 0.0
2017-Nov-15 20:59N 40°38' W 074°08'0 0.2
2017-Nov-15 20:30N 40°39' W 074°08'0 0.1
2017-Nov-15 20:00N 40°38' W 074°08'1 1.3
2017-Nov-15 19:30N 40°39' W 074°09'2 4.7
2017-Nov-15 19:00N 40°41' W 074°09'1 1.7
2017-Nov-15 18:30N 40°40' W 074°08'2 3.4
2017-Nov-15 18:00N 40°39' W 074°08'3 5.1
2017-Nov-15 17:30N 40°39' W 074°05'2 3.8
2017-Nov-15 17:00N 40°38' W 074°03'1 2.3
2017-Nov-15 16:30N 40°37' W 074°03'0 0.6
2017-Nov-15 16:01N 40°36' W 074°03'0 0.5
2017-Nov-15 15:30N 40°36' W 074°03'4 8.4
2017-Nov-15 15:00N 40°39' W 074°07'3 5.4
2017-Nov-15 14:30N 40°41' W 074°09'0 0.7
2017-Nov-15 14:00N 40°41' W 074°09'2 4.2
2017-Nov-15 13:30N 40°39' W 074°09'3 5.4
2017-Nov-15 13:01N 40°39' W 074°06'3 5.6
2017-Nov-15 12:30N 40°37' W 074°03'4 8.1
2017-Nov-15 12:00N 40°39' W 074°08'2 3.2
2017-Nov-15 11:30N 40°40' W 074°08'0 0.3
2017-Nov-15 11:00N 40°40' W 074°09'2 3.5
2017-Nov-15 10:30N 40°38' W 074°08'0 0.0
2017-Nov-15 10:00N 40°38' W 074°08'0 0.0
2017-Nov-15 09:29N 40°38' W 074°08'0 0.0
2017-Nov-15 09:00N 40°38' W 074°08'0 0.0
2017-Nov-15 08:29N 40°38' W 074°08'0 0.0
2017-Nov-15 07:59N 40°38' W 074°08'0 0.0
2017-Nov-15 07:30N 40°38' W 074°08'0 0.0
2017-Nov-15 07:00N 40°38' W 074°08'0 0.0
2017-Nov-15 06:30N 40°38' W 074°08'0 0.0
2017-Nov-15 06:00N 40°38' W 074°08'0 0.0
2017-Nov-15 05:30N 40°38' W 074°08'0 0.0
2017-Nov-15 04:59N 40°38' W 074°08'0 0.0
2017-Nov-15 04:30N 40°38' W 074°08'4 8.7
2017-Nov-15 04:00N 40°40' W 074°03'2 3.5
2017-Nov-15 03:30N 40°41' W 074°01'2 4.0
2017-Nov-15 03:00N 40°40' W 074°03'2 4.5
2017-Nov-15 02:30N 40°38' W 074°03'1 1.4
2017-Nov-15 02:00N 40°38' W 074°03'3 6.5
2017-Nov-15 01:30N 40°38' W 074°08'0 0.0
2017-Nov-15 01:00N 40°38' W 074°08'0 0.0
2017-Nov-15 00:30N 40°38' W 074°08'0 0.3
2017-Nov-15 00:00N 40°39' W 074°08'1 2.6
2017-Nov-14 23:30N 40°39' W 074°06'0 0.3
2017-Nov-14 23:00N 40°39' W 074°06'2 3.9
2017-Nov-14 22:30N 40°38' W 074°09'2 3.3
2017-Nov-14 22:00N 40°39' W 074°11'2 4.4
2017-Nov-14 21:30N 40°37' W 074°12'0 0.6
2017-Nov-14 21:00N 40°37' W 074°12'3 5.9
2017-Nov-14 20:30N 40°39' W 074°10'2 3.2
2017-Nov-14 20:00N 40°38' W 074°08'0 0.0
2017-Nov-14 19:29N 40°38' W 074°08'0 0.0
2017-Nov-14 18:58N 40°38' W 074°08'0 0.0
2017-Nov-14 18:30N 40°38' W 074°08'0 0.0
2017-Nov-14 18:00N 40°38' W 074°08'0 0.0
2017-Nov-14 17:30N 40°38' W 074°08'0 0.0
2017-Nov-14 17:00N 40°38' W 074°08'0 0.0
2017-Nov-14 16:30N 40°38' W 074°08'0 0.0
2017-Nov-14 16:00N 40°38' W 074°08'0 0.0
2017-Nov-14 15:30N 40°38' W 074°08'0 0.0
2017-Nov-14 15:00N 40°38' W 074°08'2 3.4
2017-Nov-14 14:30N 40°39' W 074°06'3 5.5
2017-Nov-14 14:00N 40°39' W 074°09'2 4.2
2017-Nov-14 13:30N 40°41' W 074°09'0 0.2
2017-Nov-14 13:00N 40°41' W 074°09'2 4.1
2017-Nov-14 12:30N 40°39' W 074°09'1 1.9
2017-Nov-14 12:00N 40°38' W 074°08'0 0.7
2017-Nov-14 11:29N 40°39' W 074°07'3 6.9
2017-Nov-14 11:00N 40°40' W 074°03'1 2.6
2017-Nov-14 10:30N 40°40' W 074°05'0 0.1
2017-Nov-14 10:00N 40°40' W 074°05'3 5.7
2017-Nov-14 09:29N 40°38' W 074°08'0 0.0
2017-Nov-14 09:00N 40°38' W 074°08'0 0.0
2017-Nov-14 08:30N 40°38' W 074°08'0 0.0
2017-Nov-14 08:00N 40°38' W 074°08'0 0.0
2017-Nov-14 07:30N 40°38' W 074°08'4 7.9
2017-Nov-14 07:00N 40°37' W 074°12'2 1.3
2017-Nov-14 05:45N 40°35' W 074°13'3 5.2
2017-Nov-14 05:13N 40°33' W 074°15'0 0.1
2017-Nov-14 03:05N 40°33' W 074°15'4 9.9
2017-Nov-14 02:42N 40°36' W 074°12'210.8
2017-Nov-14 02:30N 40°38' W 074°12'5 9.1
2017-Nov-14 01:59N 40°39' W 074°06'2 4.6
2017-Nov-14 01:30N 40°39' W 074°09'1 1.7
2017-Nov-14 01:00N 40°40' W 074°09'0 0.7
2017-Nov-14 00:30N 40°40' W 074°09'0 0.0
2017-Nov-14 00:00N 40°40' W 074°09'0 0.0
2017-Nov-13 23:30N 40°40' W 074°09'0 0.0
2017-Nov-13 23:00N 40°40' W 074°09'0 0.0
2017-Nov-13 22:30N 40°40' W 074°09'0 0.0
2017-Nov-13 22:00N 40°40' W 074°09'2 0.1
2017-Nov-13 01:59N 40°39' W 074°07'0 0.4
2017-Nov-13 01:30N 40°39' W 074°07'2 3.7
2017-Nov-13 01:00N 40°40' W 074°08'2 3.4
2017-Nov-13 00:30N 40°42' W 074°09'0 0.3
2017-Nov-13 00:00N 40°42' W 074°09'3 6.4
2017-Nov-12 23:29N 40°39' W 074°08'0 0.3
2017-Nov-12 23:00N 40°38' W 074°08'0 0.0
2017-Nov-12 22:30N 40°38' W 074°08'0 0.5
2017-Nov-12 22:00N 40°39' W 074°08'2 3.7
2017-Nov-12 21:30N 40°40' W 074°08'1 1.7
2017-Nov-12 21:00N 40°41' W 074°09'3 5.1
2017-Nov-12 20:30N 40°39' W 074°08'0 0.8
2017-Nov-12 20:00N 40°38' W 074°08'0 0.0
2017-Nov-12 19:30N 40°38' W 074°08'0 0.1
2017-Nov-12 19:00N 40°39' W 074°08'0 0.0
2017-Nov-12 18:30N 40°39' W 074°08'0 0.0
2017-Nov-12 18:00N 40°39' W 074°08'0 0.0
2017-Nov-12 17:30N 40°39' W 074°08'1 2.9
2017-Nov-12 17:00N 40°40' W 074°09'0 0.2
2017-Nov-12 16:30N 40°40' W 074°09'2 3.3
2017-Nov-12 16:00N 40°39' W 074°07'3 6.4
2017-Nov-12 15:30N 40°38' W 074°03'4 7.3
2017-Nov-12 15:00N 40°39' W 074°08'0 0.2
2017-Nov-12 14:30N 40°38' W 074°08'0 0.0
2017-Nov-12 14:00N 40°38' W 074°08'0 0.0
2017-Nov-12 13:30N 40°38' W 074°08'0 0.0
2017-Nov-12 13:00N 40°38' W 074°08'0 0.1
2017-Nov-12 12:30N 40°38' W 074°08'3 5.3
2017-Nov-12 12:00N 40°41' W 074°09'0 0.4
2017-Nov-12 11:30N 40°41' W 074°09'1 1.3
2017-Nov-12 11:00N 40°40' W 074°08'2 3.9
2017-Nov-12 10:30N 40°39' W 074°09'3 6.1
2017-Nov-12 10:00N 40°39' W 074°05'2 4.6
2017-Nov-12 09:30N 40°37' W 074°03'3 6.6
2017-Nov-12 09:00N 40°39' W 074°07'1 1.4
2017-Nov-12 08:30N 40°38' W 074°08'0 0.0
2017-Nov-12 08:00N 40°38' W 074°08'0 0.0
2017-Nov-12 07:30N 40°38' W 074°08'0 0.0
2017-Nov-12 02:48N 40°38' W 074°08'0 0.0
2017-Nov-12 02:30N 40°39' W 074°08'0 0.0
2017-Nov-12 01:46N 40°39' W 074°08'0 0.0
2017-Nov-12 01:30N 40°39' W 074°08'0 0.0
2017-Nov-12 00:59N 40°39' W 074°08'0 0.0
2017-Nov-12 00:30N 40°39' W 074°08'0 0.0
2017-Nov-11 23:59N 40°39' W 074°08'0 0.0
2017-Nov-11 22:58N 40°39' W 074°08'0 0.2
2017-Nov-11 22:31N 40°38' W 074°08'0 0.0
2017-Nov-11 22:00N 40°38' W 074°08'0 0.0
2017-Nov-11 21:30N 40°38' W 074°08'0 0.1
2017-Nov-11 21:00N 40°38' W 074°08'2 5.0
2017-Nov-11 20:30N 40°41' W 074°08'0 0.4
2017-Nov-11 20:00N 40°41' W 074°08'3 5.4
2017-Nov-11 19:31N 40°39' W 074°08'0 0.0
2017-Nov-11 19:00N 40°39' W 074°08'0 0.0
2017-Nov-11 18:30N 40°39' W 074°08'0 0.0
2017-Nov-11 17:59N 40°39' W 074°08'0 0.0
2017-Nov-11 17:20N 40°39' W 074°08'0 0.0
2017-Nov-11 16:58N 40°39' W 074°08'0 0.0
2017-Nov-11 16:30N 40°39' W 074°08'0 0.0
2017-Nov-11 16:00N 40°39' W 074°08'0 0.0
2017-Nov-11 15:31N 40°39' W 074°08'0 0.0
2017-Nov-11 15:00N 40°39' W 074°08'0 0.0
2017-Nov-11 14:30N 40°39' W 074°08'0 0.0
2017-Nov-11 14:00N 40°39' W 074°08'0 0.0
2017-Nov-11 13:30N 40°39' W 074°08'0 0.0
2017-Nov-11 13:00N 40°39' W 074°08'2 3.2
2017-Nov-11 12:29N 40°39' W 074°06'511.0
2017-Nov-11 12:00N 40°43' W 074°01'3 6.5
2017-Nov-11 11:31N 40°46' W 074°00'1 1.1
2017-Nov-11 11:00N 40°46' W 074°00'1 2.6
2017-Nov-11 10:31N 40°44' W 074°01'1 2.2
2017-Nov-11 10:00N 40°43' W 074°01'4 8.4
2017-Nov-11 09:31N 40°39' W 074°03'4 6.9
2017-Nov-11 09:00N 40°38' W 074°08'0 0.0
2017-Nov-11 08:30N 40°38' W 074°08'0 0.0
2017-Nov-11 08:00N 40°38' W 074°08'0 0.0
2017-Nov-11 07:30N 40°38' W 074°08'0 0.0
2017-Nov-11 07:00N 40°38' W 074°08'0 0.0
2017-Nov-11 06:30N 40°38' W 074°08'0 0.0
2017-Nov-11 06:00N 40°38' W 074°08'0 0.0
2017-Nov-11 05:30N 40°38' W 074°08'0 0.6
2017-Nov-11 05:00N 40°39' W 074°07'1 2.8
2017-Nov-11 04:30N 40°40' W 074°09'0 0.4
2017-Nov-11 04:00N 40°40' W 074°09'0 0.3
2017-Nov-11 03:30N 40°40' W 074°09'0 0.1
2017-Nov-11 03:00N 40°40' W 074°09'1 2.7
2017-Nov-11 02:29N 40°38' W 074°08'0 0.0
2017-Nov-11 00:52N 40°38' W 074°08'0 0.0
2017-Nov-11 00:27N 40°38' W 074°08'0 0.0
2017-Nov-10 23:52N 40°38' W 074°08'0 0.0
2017-Nov-10 23:30N 40°38' W 074°08'0 0.0
2017-Nov-10 22:40N 40°38' W 074°08'0 0.0
2017-Nov-10 22:27N 40°38' W 074°08'4 8.2
2017-Nov-10 22:00N 40°37' W 074°12'5 1.7
2017-Nov-10 19:11N 40°33' W 074°15'3 8.3
2017-Nov-10 18:49N 40°35' W 074°12'3 8.9
2017-Nov-10 18:30N 40°38' W 074°12'3 6.9
2017-Nov-10 18:00N 40°38' W 074°08'0 0.0
2017-Nov-10 17:30N 40°38' W 074°08'0 0.0
2017-Nov-10 17:00N 40°38' W 074°08'0 0.0
2017-Nov-10 16:30N 40°38' W 074°08'0 0.0
2017-Nov-10 16:00N 40°39' W 074°08'0 0.0
2017-Nov-10 15:30N 40°39' W 074°08'0 0.0
2017-Nov-10 15:00N 40°39' W 074°08'0 0.0
2017-Nov-10 14:31N 40°39' W 074°08'1 1.7
2017-Nov-10 14:00N 40°39' W 074°07'2 3.8
2017-Nov-10 13:30N 40°39' W 074°09'2 3.5
2017-Nov-10 13:00N 40°41' W 074°09'0 0.8
2017-Nov-10 12:30N 40°41' W 074°09'1 2.3
2017-Nov-10 12:00N 40°40' W 074°09'0 0.1
2017-Nov-10 11:30N 40°40' W 074°09'1 2.4
2017-Nov-10 11:00N 40°39' W 074°09'3 5.2
2017-Nov-10 10:30N 40°39' W 074°05'2 3.7
2017-Nov-10 10:00N 40°38' W 074°03'3 6.1
2017-Nov-10 09:30N 40°39' W 074°07'0 0.7
2017-Nov-10 09:00N 40°38' W 074°08'0 0.0
2017-Nov-10 08:30N 40°38' W 074°08'0 0.0
2017-Nov-10 08:00N 40°38' W 074°08'0 0.0
2017-Nov-10 07:30N 40°38' W 074°08'0 0.0
2017-Nov-10 07:01N 40°38' W 074°08'2 3.6
2017-Nov-10 06:31N 40°39' W 074°05'3 5.5
2017-Nov-10 06:00N 40°39' W 074°09'2 4.1
2017-Nov-10 05:30N 40°41' W 074°09'0 0.4
2017-Nov-10 05:00N 40°41' W 074°09'2 4.6
2017-Nov-10 04:30N 40°38' W 074°08'0 0.0
2017-Nov-10 04:00N 40°38' W 074°08'0 0.0
2017-Nov-10 03:31N 40°38' W 074°08'0 0.0
2017-Nov-10 03:00N 40°38' W 074°08'1 2.9
2017-Nov-10 02:30N 40°40' W 074°08'2 3.8
2017-Nov-10 02:00N 40°42' W 074°08'1 2.2
2017-Nov-10 01:30N 40°41' W 074°08'2 4.3
2017-Nov-10 01:00N 40°39' W 074°07'3 6.3
2017-Nov-10 00:30N 40°38' W 074°03'  

Dump ship's entire track history